Time;durP1;ratioP1;P1;durP2;ratioP2;P2;SDS_P1;SDS_P2;PMS_P1;PMS_P2;Temp;Humidity;BMP_temperature;BMP_pressure;BME280_temperature;BME280_humidity;BME280_pressure;Samples;Min_cycle;Max_cycle;Signal;HPM_P1;HPM_P2
2022/08/22 03:49:23;;;;;;;;;;;;;;;22.30;50.60;96612.38;4207506;28;10412;-63
2022/08/22 03:51:39;;;;;;;;;;;;;;;22.59;50.11;96615.31;4167481;28;6222;-63
2022/08/22 03:54:07;;;;;;;;;;;;;;;22.81;49.86;96614.97;4177347;28;7789;-63
2022/08/22 03:56:46;;;;;;;;;;;;;;;22.98;49.50;96614.63;4175744;28;5738;-63
2022/08/22 03:59:18;;;;;;;;;;;;;;;23.10;49.23;96615.13;4150816;28;5836;-63
2022/08/22 04:01:50;;;;;;;;;;;;;;;23.18;48.93;96626.13;4181042;28;5832;-63
2022/08/22 04:04:17;;;;;;;;;;;;;;;23.25;49.08;96623.16;4179211;28;5738;-63
2022/08/22 04:06:44;;;;;;;;;;;;;;;23.31;48.65;96623.91;4180932;28;5828;-63
2022/08/22 04:09:19;;;;;;;;;;;;;;;23.34;48.94;96626.09;4180785;28;5766;-63
2022/08/22 04:11:52;;;;;;;;;;;;;;;23.35;48.73;96627.69;4180987;28;5061;-64
2022/08/22 04:14:39;;;;;;;;;;;;;;;23.37;48.52;96625.50;4180677;28;5861;-63
2022/08/22 04:16:58;;;;;;;;;;;;;;;23.39;48.59;96634.13;4129697;28;5763;-64
2022/08/22 04:19:46;;;;;;;;;;;;;;;23.41;48.51;96629.25;4129840;28;5826;-63
2022/08/22 04:22:21;;;;;;;;;;;;;;;23.44;48.58;96634.91;4060289;29;6624;-63
2022/08/22 04:24:48;;;;;;;;;;;;;;;23.44;48.10;96632.22;4035884;29;5956;-63
2022/08/22 04:26:59;;;;;;;;;;;;;;;23.45;48.03;96633.84;4065990;29;5961;-63
2022/08/22 04:29:08;;;;;;;;;;;;;;;23.44;47.97;96640.31;4066128;29;5964;-63
2022/08/22 04:31:13;;;;;;;;;;;;;;;23.45;48.12;96627.63;4066111;29;5967;-63
2022/08/22 04:33:24;;;;;;;;;;;;;;;23.44;48.13;96639.47;4065866;29;6059;-63
2022/08/22 04:35:32;;;;;;;;;;;;;;;23.44;48.05;96636.78;4070723;29;5956;-63
2022/08/22 04:37:45;;;;;;;;;;;;;;;23.44;47.63;96643.00;4065337;29;6043;-63
2022/08/22 04:39:53;;;;;;;;;;;;;;;23.46;47.45;96635.44;4065598;29;5949;-63
2022/08/22 04:42:01;;;;;;;;;;;;;;;23.47;48.02;96641.66;4070094;29;6211;-63
2022/08/22 04:44:28;;;;;;;;;;;;;;;23.47;47.61;96633.56;4065381;29;6010;-63
2022/08/22 04:46:38;;;;;;;;;;;;;;;23.47;47.75;96638.94;4066487;29;5980;-63
2022/08/22 04:48:48;;;;;;;;;;;;;;;23.46;47.53;96640.03;4060284;29;5956;-63
2022/08/22 04:50:57;;;;;;;;;;;;;;;23.44;47.80;96636.78;4044255;29;6057;-63
2022/08/22 04:53:17;;;;;;;;;;;;;;;23.45;47.73;96641.13;4072864;28;5760;-62
2022/08/22 04:55:32;;;;;;;;;;;;;;;23.47;47.33;96649.75;4086942;28;6490;-63
2022/08/22 04:57:45;;;;;;;;;;;;;;;23.47;47.67;96647.84;4101295;28;5875;-62
2022/08/22 04:59:49;;;;;;;;;;;;;;;23.48;47.62;96648.66;4153025;28;5767;-63
2022/08/22 05:01:55;;;;;;;;;;;;;;;23.46;47.32;96650.81;4152474;28;5775;-63
2022/08/22 05:04:02;;;;;;;;;;;;;;;23.41;47.29;96657.03;4160424;28;5643;-63
2022/08/22 05:06:07;;;;;;;;;;;;;;;23.42;47.66;96676.72;4175908;28;6567;-63
2022/08/22 05:08:18;;;;;;;;;;;;;;;23.43;47.05;96662.97;4164219;28;5747;-64
2022/08/22 05:10:25;;;;;;;;;;;;;;;23.44;47.32;96669.16;4152765;28;5758;-63
2022/08/22 05:12:32;;;;;;;;;;;;;;;23.46;46.96;96673.22;4152336;28;6970;-62
2022/08/22 05:14:41;;;;;;;;;;;;;;;23.46;47.27;96680.50;4168213;28;5820;-63
2022/08/22 05:16:50;;;;;;;;;;;;;;;23.47;46.82;96684.81;4158701;28;5849;-62
2022/08/22 05:19:01;;;;;;;;;;;;;;;23.46;47.12;96689.41;4166257;28;5695;-61
2022/08/22 05:21:07;;;;;;;;;;;;;;;23.48;47.07;96697.22;4158886;28;5843;-62
2022/08/22 05:23:20;;;;;;;;;;;;;;;23.47;46.74;96696.41;4163984;28;5763;-62
2022/08/22 05:25:27;;;;;;;;;;;;;;;23.49;46.85;96705.03;4155488;28;5771;-63
2022/08/22 05:27:34;;;;;;;;;;;;;;;23.50;46.88;96700.44;4152387;28;6990;-62
2022/08/22 05:29:42;;;;;;;;;;;;;;;23.51;46.71;96705.53;4164254;28;5813;-63
2022/08/22 05:31:51;;;;;;;;;;;;;;;23.51;46.75;96704.75;4165845;28;5962;-63
2022/08/22 05:34:01;;;;;;;;;;;;;;;23.51;47.17;96696.66;4163396;28;5878;-62
2022/08/22 05:36:08;;;;;;;;;;;;;;;23.50;46.81;96695.84;4157479;28;5766;-62
2022/08/22 05:38:22;;;;;;;;;;;;;;;23.52;46.95;96700.97;4157052;28;5894;-62
2022/08/22 05:40:28;;;;;;;;;;;;;;;23.52;46.83;96698.25;4168423;28;5867;-63
2022/08/22 05:42:35;;;;;;;;;;;;;;;23.51;46.75;96702.03;4168406;28;5757;-63
2022/08/22 05:44:39;;;;;;;;;;;;;;;23.52;47.02;96709.06;4168559;28;5790;-63
2022/08/22 05:46:44;;;;;;;;;;;;;;;23.53;47.07;96706.06;4168453;28;5742;-62
2022/08/22 05:48:55;;;;;;;;;;;;;;;23.53;47.35;96700.69;4168425;28;5567;-63
2022/08/22 05:51:09;;;;;;;;;;;;;;;23.58;47.18;96709.84;4168516;28;5750;-63
2022/08/22 05:53:17;;;;;;;;;;;;;;;23.61;46.94;96712.81;4167943;28;5734;-63
2022/08/22 05:55:27;;;;;;;;;;;;;;;23.61;47.30;96706.63;4155095;28;5756;-63
2022/08/22 05:57:35;;;;;;;;;;;;;;;23.61;47.20;96709.31;4157351;28;6648;-63
2022/08/22 05:59:41;;;;;;;;;;;;;;;23.60;47.38;96700.41;4156562;28;5759;-63
2022/08/22 06:01:56;;;;;;;;;;;;;;;23.62;47.69;96705.53;4161566;28;5741;-63
2022/08/22 06:04:06;;;;;;;;;;;;;;;23.63;47.99;96704.44;4158137;28;5690;-63
2022/08/22 06:06:14;;;;;;;;;;;;;;;23.67;48.15;96705.50;4164646;28;5741;-63
2022/08/22 06:08:23;;;;;;;;;;;;;;;23.69;48.06;96706.84;4159163;28;5949;-64
2022/08/22 06:10:34;;;;;;;;;;;;;;;23.77;47.91;96700.03;4162027;28;5840;-63
2022/08/22 06:12:41;;;;;;;;;;;;;;;23.85;48.11;96701.34;4158942;28;5889;-63
2022/08/22 06:14:53;;;;;;;;;;;;;;;23.92;47.84;96701.84;4157140;28;7737;-63
2022/08/22 06:17:02;;;;;;;;;;;;;;;23.99;48.11;96707.72;4158536;28;5983;-63
2022/08/22 06:19:06;;;;;;;;;;;;;;;24.02;48.09;96707.97;4158257;28;5804;-64
2022/08/22 06:21:30;;;;;;;;;;;;;;;24.05;47.93;96712.81;4160728;28;5755;-63
2022/08/22 06:23:45;;;;;;;;;;;;;;;24.07;48.17;96699.84;4155327;28;5742;-63
2022/08/22 06:25:51;;;;;;;;;;;;;;;24.10;47.98;96701.16;4160531;28;5744;-63
2022/08/22 06:27:57;;;;;;;;;;;;;;;24.10;48.41;96696.56;4165343;28;5769;-63
2022/08/22 06:30:03;;;;;;;;;;;;;;;24.10;48.31;96707.38;4160496;28;6558;-63
2022/08/22 06:32:13;;;;;;;;;;;;;;;24.12;48.19;96712.47;4158927;28;5925;-63
2022/08/22 06:34:23;;;;;;;;;;;;;;;24.12;48.04;96712.47;4159511;28;5940;-63
2022/08/22 06:36:32;;;;;;;;;;;;;;;24.15;48.65;96713.84;4155497;28;5884;-63
2022/08/22 06:38:53;;;;;;;;;;;;;;;24.16;48.35;96718.94;4163388;28;5742;-63
2022/08/22 06:41:00;;;;;;;;;;;;;;;24.17;48.28;96712.47;4166701;28;5873;-63
2022/08/22 06:43:05;;;;;;;;;;;;;;;24.19;48.79;96725.69;4151332;28;5755;-66
2022/08/22 06:45:12;;;;;;;;;;;;;;;24.20;48.54;96724.59;4159825;28;5742;-63
2022/08/22 06:47:26;;;;;;;;;;;;;;;24.23;48.63;96730.22;4160134;28;5809;-63
2022/08/22 06:49:33;;;;;;;;;;;;;;;24.25;48.73;96732.66;4161535;28;5740;-63
2022/08/22 06:51:38;;;;;;;;;;;;;;;24.24;48.81;96731.06;4164598;28;5772;-63
2022/08/22 06:53:46;;;;;;;;;;;;;;;24.25;48.84;96733.47;4165062;28;5759;-64
2022/08/22 06:55:54;;;;;;;;;;;;;;;24.25;48.57;96728.06;4167456;28;5143;-63
2022/08/22 06:58:03;;;;;;;;;;;;;;;24.25;48.37;96728.06;4167507;28;5733;-63
2022/08/22 07:00:11;;;;;;;;;;;;;;;24.25;48.39;96719.97;4155302;28;5834;-63
2022/08/22 07:02:22;;;;;;;;;;;;;;;24.27;48.70;96725.88;4150919;28;5751;-63
2022/08/22 07:04:27;;;;;;;;;;;;;;;24.27;48.43;96723.19;4161754;28;5894;-63
2022/08/22 07:06:34;;;;;;;;;;;;;;;24.27;48.44;96714.28;4163676;28;5886;-63
2022/08/22 07:08:39;;;;;;;;;;;;;;;24.26;48.49;96713.47;4163272;28;5726;-63
2022/08/22 07:10:44;;;;;;;;;;;;;;;24.25;48.31;96717.28;4157060;28;5738;-63
2022/08/22 07:12:50;;;;;;;;;;;;;;;24.25;48.33;96719.97;4154720;28;6043;-63
2022/08/22 07:15:00;;;;;;;;;;;;;;;24.26;48.51;96729.69;4147704;28;5688;-63
2022/08/22 07:17:07;;;;;;;;;;;;;;;24.26;48.27;96732.38;4160980;28;5822;-63
2022/08/22 07:19:22;;;;;;;;;;;;;;;24.25;48.83;96728.06;4164303;28;5729;-63
2022/08/22 07:21:28;;;;;;;;;;;;;;;24.27;48.35;96730.50;4163173;28;5944;-63
2022/08/22 07:23:35;;;;;;;;;;;;;;;24.27;48.22;96725.88;4166910;28;5858;-63
2022/08/22 07:25:51;;;;;;;;;;;;;;;24.29;48.61;96731.81;4167420;28;5761;-63
2022/08/22 07:28:04;;;;;;;;;;;;;;;24.30;48.73;96728.06;4163283;28;6592;-63
2022/08/22 07:30:13;;;;;;;;;;;;;;;24.32;48.27;96731.28;4161277;28;5897;-63
2022/08/22 07:32:20;;;;;;;;;;;;;;;24.34;48.66;96729.09;4160752;28;5837;-63
2022/08/22 07:34:39;;;;;;;;;;;;;;;24.35;48.10;96733.44;4161866;28;5951;-63
2022/08/22 07:37:00;;;;;;;;;;;;;;;24.36;48.23;96729.63;4162615;28;5745;-63
2022/08/22 07:39:20;;;;;;;;;;;;;;;24.36;48.44;96724.22;4155783;28;5747;-63
2022/08/22 07:41:30;;;;;;;;;;;;;;;24.37;48.42;96727.75;4164631;28;5737;-63
2022/08/22 07:43:39;;;;;;;;;;;;;;;24.36;48.12;96728.84;4166722;28;5745;-63
2022/08/22 07:45:51;;;;;;;;;;;;;;;24.36;48.16;96735.03;4166879;28;5858;-64
2022/08/22 07:48:07;;;;;;;;;;;;;;;24.38;48.21;96726.66;4166594;28;5774;-63
2022/08/22 07:50:18;;;;;;;;;;;;;;;24.39;48.04;96728.25;4166573;28;5770;-64
2022/08/22 07:52:23;;;;;;;;;;;;;;;24.39;48.15;96723.66;4161535;28;5834;-62
2022/08/22 07:54:34;;;;;;;;;;;;;;;24.42;47.87;96729.59;4150580;28;5952;-64
2022/08/22 07:56:45;;;;;;;;;;;;;;;24.44;48.30;96722.00;4167242;28;7737;-64
2022/08/22 07:58:53;;;;;;;;;;;;;;;24.44;47.88;96722.00;4167086;28;5784;-64
2022/08/22 08:00:58;;;;;;;;;;;;;;;24.46;47.73;96714.41;4162290;28;5886;-64
2022/08/22 08:03:06;;;;;;;;;;;;;;;24.47;47.80;96718.75;4162720;28;5773;-64
2022/08/22 08:05:13;;;;;;;;;;;;;;;24.49;47.86;96716.56;4159352;28;6232;-64
2022/08/22 08:07:19;;;;;;;;;;;;;;;24.47;47.78;96713.34;4149781;28;5778;-63
2022/08/22 08:09:24;;;;;;;;;;;;;;;24.49;47.38;96720.06;4152767;28;5771;-63
2022/08/22 08:11:32;;;;;;;;;;;;;;;24.50;47.63;96715.47;4153437;28;5964;-63
2022/08/22 08:13:40;;;;;;;;;;;;;;;24.52;47.67;96716.00;4166567;28;5291;-62
2022/08/22 08:15:45;;;;;;;;;;;;;;;24.55;47.38;96718.13;4150673;28;5754;-63
2022/08/22 08:17:56;;;;;;;;;;;;;;;24.57;47.54;96718.63;4155340;28;5826;-63
2022/08/22 08:20:02;;;;;;;;;;;;;;;24.59;47.11;96717.28;4166454;28;5726;-62
2022/08/22 08:22:06;;;;;;;;;;;;;;;24.59;47.41;96716.47;4163326;28;5909;-63
2022/08/22 08:24:14;;;;;;;;;;;;;;;24.59;47.32;96719.19;4157570;28;5745;-63
2022/08/22 08:26:21;;;;;;;;;;;;;;;24.60;47.15;96718.09;4160175;28;5097;-63
2022/08/22 08:28:33;;;;;;;;;;;;;;;24.59;46.90;96724.59;4159714;28;6411;-63
2022/08/22 08:30:39;;;;;;;;;;;;;;;24.61;47.11;96728.59;4161888;28;5840;-63
2022/08/22 08:32:47;;;;;;;;;;;;;;;24.64;47.02;96725.31;4165712;28;5786;-63
2022/08/22 08:34:52;;;;;;;;;;;;;;;24.61;47.44;96723.19;4163144;28;5859;-63
2022/08/22 08:37:00;;;;;;;;;;;;;;;24.63;47.21;96723.72;4161745;28;5742;-62
2022/08/22 08:39:18;;;;;;;;;;;;;;;24.65;46.94;96718.03;4169474;28;5738;-62
2022/08/22 08:41:48;;;;;;;;;;;;;;;24.67;46.90;96722.03;4160029;28;6022;-63
2022/08/22 08:44:02;;;;;;;;;;;;;;;24.68;47.20;96714.75;4157620;28;5235;-62
2022/08/22 08:46:27;;;;;;;;;;;;;;;24.68;47.16;96718.25;4155655;28;5850;-62
2022/08/22 08:48:55;;;;;;;;;;;;;;;24.72;46.75;96723.91;4160873;28;5767;-66
2022/08/22 08:51:14;;;;;;;;;;;;;;;24.70;46.93;96726.09;4159742;28;5876;-62
2022/08/22 08:53:32;;;;;;;;;;;;;;;24.69;47.42;96727.19;4156692;28;6746;-61
2022/08/22 08:55:49;;;;;;;;;;;;;;;24.72;47.34;96721.22;4159226;28;5812;-62
2022/08/22 08:58:08;;;;;;;;;;;;;;;24.71;47.09;96724.19;4165710;28;5746;-61
2022/08/22 09:00:15;;;;;;;;;;;;;;;24.70;47.25;96722.59;4163258;28;5669;-61
2022/08/22 09:02:54;;;;;;;;;;;;;;;24.71;47.29;96724.19;4154652;28;5905;-62
2022/08/22 09:05:32;;;;;;;;;;;;;;;24.74;47.51;96715.50;4167933;28;5779;-61
2022/08/22 09:07:57;;;;;;;;;;;;;;;24.76;47.29;96706.03;4127803;28;5779;-61
2022/08/22 09:10:22;;;;;;;;;;;;;;;24.78;47.25;96711.13;4155150;28;5763;-61
2022/08/22 09:12:51;;;;;;;;;;;;;;;24.80;47.41;96706.25;4156112;28;5685;-61
2022/08/22 09:15:45;;;;;;;;;;;;;;;24.80;47.76;96706.25;4163804;28;5746;-61
2022/08/22 09:18:34;;;;;;;;;;;;;;;24.76;47.81;96706.03;4158090;28;5967;-61
2022/08/22 09:21:15;;;;;;;;;;;;;;;24.80;47.69;96707.03;4164844;28;5113;-62
2022/08/22 09:24:07;;;;;;;;;;;;;;;24.79;47.49;96705.44;4163515;28;5869;-62
2022/08/22 09:26:15;;;;;;;;;;;;;;;24.77;47.63;96696.81;4169013;28;5758;-62
2022/08/22 09:28:28;;;;;;;;;;;;;;;24.74;47.79;96686.59;4169191;28;5763;-61
2022/08/22 09:30:50;;;;;;;;;;;;;;;24.76;48.09;96689.00;4152678;28;5775;-62
2022/08/22 09:33:00;;;;;;;;;;;;;;;24.76;47.74;96687.09;4159145;28;5868;-62
2022/08/22 09:35:11;;;;;;;;;;;;;;;24.78;47.96;96684.91;4157850;28;5774;-62
2022/08/22 09:37:19;;;;;;;;;;;;;;;24.85;47.97;96679.97;4156844;28;5750;-62
2022/08/22 09:39:30;;;;;;;;;;;;;;;24.85;47.89;96677.28;4160984;28;5897;-62
2022/08/22 09:41:40;;;;;;;;;;;;;;;24.86;48.27;96678.06;4159586;28;6772;-62
2022/08/22 09:43:46;;;;;;;;;;;;;;;24.87;47.92;96674.28;4153519;28;5759;-62
2022/08/22 09:46:00;;;;;;;;;;;;;;;24.87;47.89;96679.69;4163081;28;5769;-61
2022/08/22 09:48:12;;;;;;;;;;;;;;;24.90;48.19;96690.72;4156332;28;5742;-61
2022/08/22 09:50:23;;;;;;;;;;;;;;;24.91;48.09;96686.91;4160856;28;5750;-62
2022/08/22 09:52:49;;;;;;;;;;;;;;;24.93;48.14;96687.47;4164819;28;6431;-62
2022/08/22 09:55:01;;;;;;;;;;;;;;;24.95;48.18;96698.78;4156266;28;5869;-62
2022/08/22 09:57:20;;;;;;;;;;;;;;;24.95;48.39;96693.38;4155158;28;5766;-62
2022/08/22 09:59:37;;;;;;;;;;;;;;;24.97;47.97;96688.50;4158417;28;5855;-62
2022/08/22 10:01:49;;;;;;;;;;;;;;;24.98;48.36;96681.19;4151896;28;5668;-62
2022/08/22 10:04:27;;;;;;;;;;;;;;;25.00;48.17;96687.09;4161319;28;5796;-62
2022/08/22 10:06:41;;;;;;;;;;;;;;;25.01;48.15;96679.78;4129412;28;5757;-62
2022/08/22 10:08:50;;;;;;;;;;;;;;;24.99;48.22;96688.19;4156488;28;6499;-61
2022/08/22 10:11:18;;;;;;;;;;;;;;;25.01;48.21;96680.63;4161443;28;5850;-62
2022/08/22 10:13:33;;;;;;;;;;;;;;;25.02;47.93;96678.72;4158004;28;5854;-62
2022/08/22 10:15:42;;;;;;;;;;;;;;;25.01;47.79;96680.63;4160576;28;5820;-62
2022/08/22 10:17:58;;;;;;;;;;;;;;;25.03;47.76;96683.03;4164095;28;5870;-61
2022/08/22 10:20:10;;;;;;;;;;;;;;;25.05;47.98;96686.28;4162516;28;5255;-61
2022/08/22 10:22:31;;;;;;;;;;;;;;;25.04;47.67;96682.78;4163933;28;5778;-61
2022/08/22 10:24:43;;;;;;;;;;;;;;;25.09;47.80;96681.91;4163002;28;5848;-61
2022/08/22 10:26:54;;;;;;;;;;;;;;;25.09;47.36;96685.41;4162741;28;5730;-63
2022/08/22 10:29:07;;;;;;;;;;;;;;;25.10;47.75;96686.22;4162636;28;5786;-62
2022/08/22 10:31:34;;;;;;;;;;;;;;;25.09;47.39;96673.78;4162461;28;5774;-62
2022/08/22 10:34:04;;;;;;;;;;;;;;;25.11;47.35;96677.00;4155005;28;5791;-62
2022/08/22 10:36:13;;;;;;;;;;;;;;;25.12;47.46;96675.91;4160523;28;5786;-62
2022/08/22 10:38:24;;;;;;;;;;;;;;;25.14;47.42;96669.13;4158890;28;5870;-62
2022/08/22 10:40:34;;;;;;;;;;;;;;;25.16;47.08;96660.72;4152066;28;5766;-62
2022/08/22 10:42:48;;;;;;;;;;;;;;;25.15;46.88;96670.75;4152961;28;5770;-62
2022/08/22 10:45:26;;;;;;;;;;;;;;;25.17;46.82;96670.44;4163343;28;5901;-62
2022/08/22 10:47:44;;;;;;;;;;;;;;;25.21;46.98;96663.38;4151870;28;5099;-60
2022/08/22 10:49:52;;;;;;;;;;;;;;;25.22;46.92;96654.94;4159090;28;5730;-60
2022/08/22 10:52:02;;;;;;;;;;;;;;;25.25;46.91;96658.97;4157355;28;5741;-62
2022/08/22 10:54:31;;;;;;;;;;;;;;;25.29;46.99;96660.03;4153012;28;5779;-62
2022/08/22 10:56:41;;;;;;;;;;;;;;;25.33;46.78;96658.34;4160179;28;5817;-64
2022/08/22 10:58:54;;;;;;;;;;;;;;;25.36;46.58;96655.03;4153974;28;5813;-65
2022/08/22 11:01:01;;;;;;;;;;;;;;;25.39;46.75;96654.47;4160139;28;5971;-67
2022/08/22 11:03:35;;;;;;;;;;;;;;;25.42;46.48;96658.50;4163044;28;5777;-63
2022/08/22 11:05:43;;;;;;;;;;;;;;;25.41;46.76;96663.09;4160808;28;5886;-64
2022/08/22 11:08:14;;;;;;;;;;;;;;;25.43;46.81;96650.09;4158563;28;5759;-64
2022/08/22 11:10:27;;;;;;;;;;;;;;;25.47;46.74;96655.72;4159163;28;5757;-64
2022/08/22 11:12:37;;;;;;;;;;;;;;;25.51;46.59;96644.03;4159616;28;5811;-65
2022/08/22 11:15:02;;;;;;;;;;;;;;;25.57;46.33;96657.47;4161607;28;5770;-66
2022/08/22 11:17:27;;;;;;;;;;;;;;;25.57;46.61;96652.06;4160200;28;5979;-68
2022/08/22 11:19:58;;;;;;;;;;;;;;;25.62;46.52;96652.00;4155464;28;5778;-66
2022/08/22 11:22:14;;;;;;;;;;;;;;;25.65;46.40;96651.41;4161171;28;5788;-65
2022/08/22 11:24:54;;;;;;;;;;;;;;;25.66;46.26;96645.69;4157719;28;5751;-66
2022/08/22 11:27:03;;;;;;;;;;;;;;;25.67;46.32;96641.88;4147654;28;5920;-67
2022/08/22 11:29:35;;;;;;;;;;;;;;;25.70;46.40;96640.53;4155682;28;6012;-66
2022/08/22 11:31:49;;;;;;;;;;;;;;;25.72;46.44;96638.34;4156922;28;5971;-69
2022/08/22 11:34:03;;;;;;;;;;;;;;;25.72;46.44;96635.66;4157540;28;7378;-63
2022/08/22 11:36:24;;;;;;;;;;;;;;;25.73;46.43;96629.94;4158518;28;6547;-65
2022/08/22 11:38:38;;;;;;;;;;;;;;;25.74;46.35;96636.16;4149963;28;5779;-64
2022/08/22 11:40:45;;;;;;;;;;;;;;;25.74;46.58;96634.25;4150927;28;5903;-63
2022/08/22 11:42:58;;;;;;;;;;;;;;;25.74;46.60;96630.75;4159031;28;5725;-69
2022/08/22 11:45:07;;;;;;;;;;;;;;;25.73;46.71;96629.13;4167605;28;5717;-69
2022/08/22 11:47:15;;;;;;;;;;;;;;;25.74;46.23;96630.75;4174891;28;5730;-62
2022/08/22 11:49:30;;;;;;;;;;;;;;;25.75;46.44;96629.63;4155467;28;5730;-65
2022/08/22 11:52:02;;;;;;;;;;;;;;;25.77;46.61;96624.72;4164787;28;5866;-64
2022/08/22 11:54:12;;;;;;;;;;;;;;;25.82;46.74;96635.47;4139178;28;5754;-68
2022/08/22 11:56:23;;;;;;;;;;;;;;;25.83;46.62;96615.44;4157395;28;6653;-68
2022/08/22 11:58:40;;;;;;;;;;;;;;;25.84;46.57;96622.47;4161730;28;5833;-68
2022/08/22 12:00:52;;;;;;;;;;;;;;;25.85;46.27;96607.00;4158479;28;5669;-69
2022/08/22 12:03:21;;;;;;;;;;;;;;;25.88;46.52;96615.34;4162296;28;5749;-65
2022/08/22 12:05:32;;;;;;;;;;;;;;;25.90;46.44;96613.13;4156663;28;5928;-68
2022/08/22 12:07:39;;;;;;;;;;;;;;;25.90;46.45;96610.44;4156483;28;5791;-69
2022/08/22 12:09:53;;;;;;;;;;;;;;;25.92;46.41;96620.97;4158177;28;5914;-68
2022/08/22 12:12:07;;;;;;;;;;;;;;;25.91;46.36;96612.03;4162937;28;5836;-67
2022/08/22 12:14:19;;;;;;;;;;;;;;;25.92;46.64;96613.66;4157427;28;5673;-66
2022/08/22 12:16:47;;;;;;;;;;;;;;;25.94;46.28;96611.47;4161702;28;5817;-67
2022/08/22 12:19:01;;;;;;;;;;;;;;;25.95;46.43;96613.06;4156082;28;5729;-66
2022/08/22 12:21:19;;;;;;;;;;;;;;;25.97;46.40;96612.78;4158845;28;5980;-67
2022/08/22 12:23:58;;;;;;;;;;;;;;;25.98;46.26;96609.75;4162828;28;5722;-64
2022/08/22 12:26:15;;;;;;;;;;;;;;;26.00;46.35;96612.97;4155925;28;5786;-65
2022/08/22 12:28:29;;;;;;;;;;;;;;;26.02;46.33;96610.78;4161777;28;6571;-69
2022/08/22 12:30:39;;;;;;;;;;;;;;;26.03;46.16;96604.25;4159031;28;5826;-66
2022/08/22 12:33:22;;;;;;;;;;;;;;;26.06;46.08;96603.69;4163742;28;5662;-65
2022/08/22 12:35:38;;;;;;;;;;;;;;;26.09;46.06;96599.56;4162426;28;5963;-65
2022/08/22 12:37:50;;;;;;;;;;;;;;;26.10;46.25;96599.25;4160740;28;6000;-67
2022/08/22 12:40:16;;;;;;;;;;;;;;;26.11;46.11;96600.88;4160440;28;5759;-67
2022/08/22 12:42:35;;;;;;;;;;;;;;;26.11;45.96;96594.66;4154767;28;5764;-69
2022/08/22 12:45:00;;;;;;;;;;;;;;;26.11;45.63;96590.03;4159068;28;5844;-65
2022/08/22 12:47:18;;;;;;;;;;;;;;;26.10;45.68;96588.44;4160763;28;5867;-70
2022/08/22 12:49:37;;;;;;;;;;;;;;;26.12;45.42;96593.53;4159055;28;5727;-70
2022/08/22 12:51:55;;;;;;;;;;;;;;;26.12;45.27;96588.94;4162980;28;5766;-70
2022/08/22 12:54:29;;;;;;;;;;;;;;;26.13;45.29;96590.53;4158426;28;5850;-70
2022/08/22 12:56:45;;;;;;;;;;;;;;;26.16;45.29;96577.50;4158482;28;5849;-68
2022/08/22 12:59:21;;;;;;;;;;;;;;;26.19;45.22;96576.91;4162695;28;5916;-70
2022/08/22 13:01:27;;;;;;;;;;;;;;;26.20;45.07;96573.09;4160875;28;5772;-66
2022/08/22 13:03:43;;;;;;;;;;;;;;;26.20;44.81;96576.63;4157101;28;5845;-67
2022/08/22 13:05:48;;;;;;;;;;;;;;;26.19;44.74;96564.16;4158074;28;5820;-66
2022/08/22 13:08:04;;;;;;;;;;;;;;;26.22;44.97;96579.03;4157353;28;5908;-69
2022/08/22 13:10:33;;;;;;;;;;;;;;;26.22;44.82;96577.13;4160128;28;5730;-69
2022/08/22 13:12:45;;;;;;;;;;;;;;;26.24;44.72;96565.97;4154325;28;6536;-65
2022/08/22 13:14:53;;;;;;;;;;;;;;;26.26;44.70;96572.69;4156375;28;5791;-64
2022/08/22 13:17:00;;;;;;;;;;;;;;;26.26;44.43;96571.88;4152077;28;7724;-64
2022/08/22 13:19:27;;;;;;;;;;;;;;;26.27;44.45;96571.59;4160831;28;5881;-66
2022/08/22 13:21:34;;;;;;;;;;;;;;;26.30;44.38;96562.88;4163093;28;5838;-64
2022/08/22 13:23:43;;;;;;;;;;;;;;;26.36;44.64;96561.69;4159010;28;5756;-68
2022/08/22 13:26:01;;;;;;;;;;;;;;;26.41;44.34;96566.25;4161709;28;5746;-64
2022/08/22 13:28:12;;;;;;;;;;;;;;;26.43;44.54;96561.31;4157123;28;5895;-65
2022/08/22 13:30:19;;;;;;;;;;;;;;;26.45;44.21;96572.66;4155949;28;5840;-70
2022/08/22 13:32:30;;;;;;;;;;;;;;;26.46;44.27;96559.91;4163508;28;5850;-71
2022/08/22 13:34:39;;;;;;;;;;;;;;;26.46;44.04;96566.13;4165390;28;5739;-71
2022/08/22 13:36:49;;;;;;;;;;;;;;;26.46;44.12;96557.19;4156301;28;5740;-66
2022/08/22 13:39:02;;;;;;;;;;;;;;;26.47;44.20;96556.09;4159394;28;5855;-68
2022/08/22 13:41:09;;;;;;;;;;;;;;;26.47;44.08;96554.19;4159331;28;5862;-70
2022/08/22 13:43:18;;;;;;;;;;;;;;;26.47;43.87;96553.38;4156371;28;5815;-69
2022/08/22 13:45:24;;;;;;;;;;;;;;;26.47;43.68;96551.47;4159267;28;5729;-68
2022/08/22 13:47:28;;;;;;;;;;;;;;;26.49;43.80;96546.53;4167164;28;5824;-66
2022/08/22 13:49:36;;;;;;;;;;;;;;;26.48;43.50;96544.94;4166684;28;5798;-69
2022/08/22 13:51:48;;;;;;;;;;;;;;;26.48;43.61;96542.22;4158823;28;5823;-70
2022/08/22 13:54:26;;;;;;;;;;;;;;;26.53;43.33;96536.72;4156822;28;5176;-69
2022/08/22 13:56:39;;;;;;;;;;;;;;;26.56;43.46;96546.97;4158184;28;5763;-68
2022/08/22 13:58:53;;;;;;;;;;;;;;;26.55;43.04;96539.94;4150500;28;5680;-65
2022/08/22 14:01:31;;;;;;;;;;;;;;;26.57;42.99;96534.22;4158832;28;5836;-70
2022/08/22 14:03:40;;;;;;;;;;;;;;;26.64;42.56;96527.28;4146488;28;5894;-65
2022/08/22 14:05:50;;;;;;;;;;;;;;;26.66;42.44;96538.63;4152709;28;5778;-66
2022/08/22 14:08:08;;;;;;;;;;;;;;;26.80;41.99;96538.59;4160176;28;5741;-65
2022/08/22 14:10:23;;;;;;;;;;;;;;;26.89;41.65;96533.28;4159419;28;5718;-69
2022/08/22 14:12:32;;;;;;;;;;;;;;;27.02;41.50;96529.78;4165196;28;5906;-68
2022/08/22 14:14:58;;;;;;;;;;;;;;;27.05;41.16;96520.22;4164212;28;5758;-71
2022/08/22 14:17:02;;;;;;;;;;;;;;;27.14;40.72;96523.81;4168307;28;5737;-70
2022/08/22 14:19:09;;;;;;;;;;;;;;;27.31;39.96;96525.88;4168499;28;5836;-67
2022/08/22 14:21:27;;;;;;;;;;;;;;;27.38;39.76;96523.53;4161487;28;5841;-69
2022/08/22 14:23:35;;;;;;;;;;;;;;;27.38;39.65;96526.25;4167800;28;5817;-70
2022/08/22 14:25:42;;;;;;;;;;;;;;;27.37;39.49;96519.22;4168175;28;5737;-72
2022/08/22 14:27:58;;;;;;;;;;;;;;;27.34;39.44;96523.34;4168138;28;5729;-72
2022/08/22 14:30:12;;;;;;;;;;;;;;;27.32;39.08;96524.78;4166656;28;5740;-68
2022/08/22 14:32:35;;;;;;;;;;;;;;;27.37;39.15;96524.63;4167721;28;5805;-68
2022/08/22 14:34:44;;;;;;;;;;;;;;;27.32;39.25;96514.72;4157631;28;5730;-67
2022/08/22 14:36:54;;;;;;;;;;;;;;;27.24;39.36;96518.16;4167897;28;5733;-70
2022/08/22 14:39:05;;;;;;;;;;;;;;;27.17;39.51;96521.28;4161829;28;5763;-67
2022/08/22 14:41:14;;;;;;;;;;;;;;;27.12;39.59;96532.25;4150299;28;5776;-72
2022/08/22 14:43:46;;;;;;;;;;;;;;;27.07;39.59;96524.25;4159891;28;5739;-68
2022/08/22 14:45:57;;;;;;;;;;;;;;;27.08;39.71;96525.03;4167667;28;5816;-71
2022/08/22 14:48:14;;;;;;;;;;;;;;;27.18;39.28;96535.66;4166112;28;7749;-69
2022/08/22 14:50:42;;;;;;;;;;;;;;;27.32;39.14;96530.19;4164392;28;5790;-69
2022/08/22 14:52:47;;;;;;;;;;;;;;;27.39;38.80;96523.22;4167726;28;5828;-68
2022/08/22 14:55:04;;;;;;;;;;;;;;;27.56;38.68;96528.00;4167297;28;6459;-66
2022/08/22 14:57:14;;;;;;;;;;;;;;;27.63;38.17;96535.69;4165364;28;5846;-67
2022/08/22 14:59:35;;;;;;;;;;;;;;;27.66;38.06;96538.63;4151570;28;5747;-70
2022/08/22 15:01:55;;;;;;;;;;;;;;;27.63;38.04;96532.97;4155178;28;5816;-70
2022/08/22 15:04:02;;;;;;;;;;;;;;;27.58;38.10;96524.97;4157722;28;5960;-67
2022/08/22 15:06:10;;;;;;;;;;;;;;;27.54;37.93;96527.50;4162957;28;5741;-68
2022/08/22 15:08:21;;;;;;;;;;;;;;;27.51;37.93;96518.03;4161169;28;5755;-68
2022/08/22 15:10:32;;;;;;;;;;;;;;;27.49;37.67;96527.59;4158519;28;6101;-67
2022/08/22 15:12:40;;;;;;;;;;;;;;;27.48;37.88;96517.88;4163489;28;6641;-70
2022/08/22 15:14:47;;;;;;;;;;;;;;;27.59;37.47;96516.50;4164234;28;5735;-70
2022/08/22 15:16:57;;;;;;;;;;;;;;;27.63;37.21;96519.41;4167567;28;5745;-69
2022/08/22 15:19:02;;;;;;;;;;;;;;;27.67;37.01;96515.81;4167625;28;5745;-70
2022/08/22 15:21:09;;;;;;;;;;;;;;;27.68;36.60;96520.13;4151363;28;5751;-69
2022/08/22 15:23:19;;;;;;;;;;;;;;;27.73;36.44;96511.84;4151393;28;5747;-68
2022/08/22 15:25:27;;;;;;;;;;;;;;;27.78;36.63;96516.34;4150814;28;7753;-70
2022/08/22 15:27:33;;;;;;;;;;;;;;;27.79;36.19;96507.88;4159608;28;5805;-69
2022/08/22 15:29:49;;;;;;;;;;;;;;;27.81;35.84;96502.94;4162818;28;5851;-69
2022/08/22 15:31:54;;;;;;;;;;;;;;;27.80;35.68;96506.78;4160767;28;5897;-69
2022/08/22 15:34:08;;;;;;;;;;;;;;;27.78;35.91;96506.28;4167303;28;5746;-69
2022/08/22 15:36:14;;;;;;;;;;;;;;;27.82;35.75;96512.69;4167330;28;5761;-67
2022/08/22 15:38:28;;;;;;;;;;;;;;;27.80;35.63;96509.50;4162858;28;5860;-67